Umar1 — 9HA2498 — position and weather

sailwx.info

Track history (hours):
 
Tides and Currents Weather Stations Pressure Air Temp Water Temp Dewpoint Dewpoint Depression Visibility Wind Speed Wind Dir Waves Ship Positions

Umar1

Last reported at 2015-Aug-02 12:29 UTC. Time now 2015-Aug-02 14:24 UTC.
Position N 50°26' W 000°14'.

Length 100 m; draft 5 m.

Type: Ship. MMSI: 248751000.

Date/timePositionNaut miles runAvg speedWind from/ knotsBaromVisibWave heightAir tempDewpointWater temp
2015-Aug-02 12:29N 50°26' W 000°14'1411.9
2015-Aug-02 11:17N 50°31' E 000°07'810.8
2015-Aug-02 10:33N 50°33' E 000°19'1110.5
2015-Aug-02 09:31N 50°36' E 000°35'1111.8
2015-Aug-02 08:33N 50°42' E 000°51'2914.2
2015-Aug-02 06:32N 50°60' E 001°26'1313.8
2015-Aug-02 05:33N 51°10' E 001°41'1212.1
2015-Aug-02 04:33N 51°20' E 001°51'1110.8
2015-Aug-02 03:33N 51°29' E 001°60'2110.5
2015-Aug-02 01:32N 51°44' E 002°24'1111.2
2015-Aug-02 00:33N 51°52' E 002°36'4012.4
2015-Aug-01 21:20N 52°02' E 003°40'1012.7
2015-Aug-01 20:33N 52°01' E 003°56'1313.2
2015-Aug-01 19:33N 51°55' E 004°14'4 4.3
2015-Aug-01 18:33N 51°53' E 004°21'0 0.0
2015-Aug-01 17:30N 51°53' E 004°21'0 0.0
2015-Aug-01 16:33N 51°53' E 004°21'0 0.0
2015-Aug-01 15:30N 51°53' E 004°21'0 0.0
2015-Aug-01 14:33N 51°53' E 004°21'0 0.0
2015-Aug-01 13:24N 51°53' E 004°21'0 0.0
2015-Aug-01 12:33N 51°53' E 004°21'0 0.0
2015-Aug-01 11:30N 51°53' E 004°21'0 0.0
2015-Aug-01 10:33N 51°53' E 004°21'0 0.0
2015-Aug-01 09:30N 51°53' E 004°21'0 0.0
2015-Aug-01 08:33N 51°53' E 004°21'0 0.0
2015-Aug-01 07:33N 51°53' E 004°21'0 0.0
2015-Aug-01 06:33N 51°53' E 004°21'0 0.0
2015-Aug-01 05:33N 51°53' E 004°21'0 0.0
2015-Aug-01 04:33N 51°53' E 004°21'2 0.1
2015-Jul-31 05:06N 51°53' E 004°18'0 0.0
2015-Jul-29 21:33N 51°53' E 004°18'0 0.0
2015-Jul-28 22:08N 51°53' E 004°18'0 0.7
2015-Jul-28 21:33N 51°53' E 004°18'6 5.7
2015-Jul-28 20:33N 51°56' E 004°12'1010.2
2015-Jul-28 19:33N 52°00' E 003°56'9 8.5
2015-Jul-28 18:33N 52°02' E 003°43'7 4.6
2015-Jul-28 17:08N 52°08' E 003°40'0 0.1
2015-Jul-28 16:32N 52°08' E 003°39'0 0.0
2015-Jul-28 15:32N 52°08' E 003°39'0 0.0
2015-Jul-28 00:32N 52°08' E 003°39'0 0.0
2015-Jul-27 23:32N 52°08' E 003°39'0 0.0
2015-Jul-27 22:32N 52°08' E 003°39'145 6.9
2015-Jul-27 01:28N 53°32' E 000°25'1011.5
2015-Jul-27 00:34N 53°33' E 000°07'10 9.9
2015-Jul-26 23:33N 53°37' W 000°08'1 1.2
2015-Jul-26 22:33N 53°38' W 000°10'0 0.0
2015-Jul-26 21:34N 53°38' W 000°10'0 0.0
2015-Jul-26 20:33N 53°38' W 000°10'0 0.0
2015-Jul-26 19:30N 53°38' W 000°10'0 0.0
2015-Jul-26 18:33N 53°38' W 000°10'0 0.0
2015-Jul-26 17:30N 53°38' W 000°10'0 0.0
2015-Jul-26 16:33N 53°38' W 000°10'0 0.0
2015-Jul-26 15:33N 53°38' W 000°10'0 0.0
2015-Jul-26 14:30N 53°38' W 000°10'0 0.0
2015-Jul-26 13:30N 53°38' W 000°10'0 0.0
2015-Jul-26 12:33N 53°38' W 000°10'0 0.0
2015-Jul-26 11:33N 53°38' W 000°10'0 0.0
2015-Jul-26 10:24N 53°38' W 000°10'0 0.0
2015-Jul-26 09:27N 53°38' W 000°10'0 0.0
2015-Jul-26 08:33N 53°38' W 000°10'0 0.0
2015-Jul-26 07:33N 53°38' W 000°10'0 0.0
2015-Jul-26 06:33N 53°38' W 000°10'0 0.0
2015-Jul-26 05:30N 53°38' W 000°10'0 0.0
2015-Jul-26 04:33N 53°38' W 000°10'0 0.0
2015-Jul-26 03:30N 53°38' W 000°10'0 0.0
2015-Jul-26 02:33N 53°38' W 000°10'0 0.0
2015-Jul-26 01:33N 53°38' W 000°10'0 0.0
2015-Jul-26 00:33N 53°38' W 000°10'0 0.0
2015-Jul-25 23:34N 53°38' W 000°10'2 2.5
2015-Jul-25 22:34N 53°37' W 000°06'6 5.5
2015-Jul-25 21:33N 53°35' E 000°03'0 0.0
2015-Jul-25 20:33N 53°35' E 000°03'0 0.0
2015-Jul-25 19:33N 53°35' E 000°03'0 0.1
2015-Jul-25 18:33N 53°35' E 000°03'0 0.0
2015-Jul-25 17:33N 53°35' E 000°03'0 0.0
2015-Jul-25 16:33N 53°35' E 000°03'0 0.0
2015-Jul-25 15:33N 53°35' E 000°03'0 0.0
2015-Jul-25 14:33N 53°35' E 000°03'0 0.0
2015-Jul-25 13:33N 53°35' E 000°03'0 0.0
2015-Jul-25 12:33N 53°35' E 000°03'0 0.0
2015-Jul-25 11:33N 53°35' E 000°03'0 0.0
2015-Jul-25 10:33N 53°35' E 000°03'0 0.1
2015-Jul-25 09:33N 53°35' E 000°03'0 0.1
2015-Jul-25 08:33N 53°35' E 000°03'0 0.1
2015-Jul-25 07:33N 53°35' E 000°03'0 0.0
2015-Jul-25 06:33N 53°35' E 000°03'0 0.0
2015-Jul-25 05:33N 53°35' E 000°03'0 0.0
2015-Jul-25 04:33N 53°35' E 000°03'0 0.0
2015-Jul-25 03:33N 53°35' E 000°03'0 0.0
2015-Jul-25 02:33N 53°35' E 000°03'0 0.0
2015-Jul-25 01:33N 53°35' E 000°03'0 0.0
2015-Jul-25 00:33N 53°35' E 000°03'0 0.0
2015-Jul-24 23:33N 53°35' E 000°03'0 0.0
2015-Jul-24 22:33N 53°35' E 000°03'0 0.1
2015-Jul-24 21:33N 53°35' E 000°03'0 0.0
2015-Jul-24 20:30N 53°35' E 000°03'0 0.0
2015-Jul-24 19:33N 53°35' E 000°03'0 0.1
2015-Jul-24 18:33N 53°35' E 000°03'0 0.0
2015-Jul-24 17:30N 53°35' E 000°03'0 0.1
2015-Jul-24 16:30N 53°35' E 000°03'7 7.4
2015-Jul-24 15:34N 53°33' E 000°14'1110.5
2015-Jul-24 14:33N 53°35' E 000°32'1210.4
2015-Jul-24 13:24N 53°45' E 000°44'  
Track history (hours):
 
Tides and Currents Weather Stations Pressure Air Temp Water Temp Dewpoint Dewpoint Depression Visibility Wind Speed Wind Dir Waves Ship Positions

Umar1

Last reported at 2015-Aug-02 12:29 UTC. Time now 2015-Aug-02 14:24 UTC.
Position N 50°26' W 000°14'.

Length 100 m; draft 5 m.

Type: Ship. MMSI: 248751000.

Date/timePositionNaut miles runAvg speedWind from/ knotsBaromVisibWave heightAir tempDewpointWater temp
2015-Aug-02 12:29N 50°26' W 000°14'1411.9
2015-Aug-02 11:17N 50°31' E 000°07'810.8
2015-Aug-02 10:33N 50°33' E 000°19'1110.5
2015-Aug-02 09:31N 50°36' E 000°35'1111.8
2015-Aug-02 08:33N 50°42' E 000°51'2914.2
2015-Aug-02 06:32N 50°60' E 001°26'1313.8
2015-Aug-02 05:33N 51°10' E 001°41'1212.1
2015-Aug-02 04:33N 51°20' E 001°51'1110.8
2015-Aug-02 03:33N 51°29' E 001°60'2110.5
2015-Aug-02 01:32N 51°44' E 002°24'1111.2
2015-Aug-02 00:33N 51°52' E 002°36'4012.4
2015-Aug-01 21:20N 52°02' E 003°40'1012.7
2015-Aug-01 20:33N 52°01' E 003°56'1313.2
2015-Aug-01 19:33N 51°55' E 004°14'4 4.3
2015-Aug-01 18:33N 51°53' E 004°21'0 0.0
2015-Aug-01 17:30N 51°53' E 004°21'0 0.0
2015-Aug-01 16:33N 51°53' E 004°21'0 0.0
2015-Aug-01 15:30N 51°53' E 004°21'0 0.0
2015-Aug-01 14:33N 51°53' E 004°21'0 0.0
2015-Aug-01 13:24N 51°53' E 004°21'0 0.0
2015-Aug-01 12:33N 51°53' E 004°21'0 0.0
2015-Aug-01 11:30N 51°53' E 004°21'0 0.0
2015-Aug-01 10:33N 51°53' E 004°21'0 0.0
2015-Aug-01 09:30N 51°53' E 004°21'0 0.0
2015-Aug-01 08:33N 51°53' E 004°21'0 0.0
2015-Aug-01 07:33N 51°53' E 004°21'0 0.0
2015-Aug-01 06:33N 51°53' E 004°21'0 0.0
2015-Aug-01 05:33N 51°53' E 004°21'0 0.0
2015-Aug-01 04:33N 51°53' E 004°21'2 0.1
2015-Jul-31 05:06N 51°53' E 004°18'0 0.0
2015-Jul-29 21:33N 51°53' E 004°18'0 0.0
2015-Jul-28 22:08N 51°53' E 004°18'0 0.7
2015-Jul-28 21:33N 51°53' E 004°18'6 5.7
2015-Jul-28 20:33N 51°56' E 004°12'1010.2
2015-Jul-28 19:33N 52°00' E 003°56'9 8.5
2015-Jul-28 18:33N 52°02' E 003°43'7 4.6
2015-Jul-28 17:08N 52°08' E 003°40'0 0.1
2015-Jul-28 16:32N 52°08' E 003°39'0 0.0
2015-Jul-28 15:32N 52°08' E 003°39'0 0.0
2015-Jul-28 00:32N 52°08' E 003°39'0 0.0
2015-Jul-27 23:32N 52°08' E 003°39'0 0.0
2015-Jul-27 22:32N 52°08' E 003°39'145 6.9
2015-Jul-27 01:28N 53°32' E 000°25'1011.5
2015-Jul-27 00:34N 53°33' E 000°07'10 9.9
2015-Jul-26 23:33N 53°37' W 000°08'1 1.2
2015-Jul-26 22:33N 53°38' W 000°10'0 0.0
2015-Jul-26 21:34N 53°38' W 000°10'0 0.0
2015-Jul-26 20:33N 53°38' W 000°10'0 0.0
2015-Jul-26 19:30N 53°38' W 000°10'0 0.0
2015-Jul-26 18:33N 53°38' W 000°10'0 0.0
2015-Jul-26 17:30N 53°38' W 000°10'0 0.0
2015-Jul-26 16:33N 53°38' W 000°10'0 0.0
2015-Jul-26 15:33N 53°38' W 000°10'0 0.0
2015-Jul-26 14:30N 53°38' W 000°10'0 0.0
2015-Jul-26 13:30N 53°38' W 000°10'0 0.0
2015-Jul-26 12:33N 53°38' W 000°10'0 0.0
2015-Jul-26 11:33N 53°38' W 000°10'0 0.0
2015-Jul-26 10:24N 53°38' W 000°10'0 0.0
2015-Jul-26 09:27N 53°38' W 000°10'0 0.0
2015-Jul-26 08:33N 53°38' W 000°10'0 0.0
2015-Jul-26 07:33N 53°38' W 000°10'0 0.0
2015-Jul-26 06:33N 53°38' W 000°10'0 0.0
2015-Jul-26 05:30N 53°38' W 000°10'0 0.0
2015-Jul-26 04:33N 53°38' W 000°10'0 0.0
2015-Jul-26 03:30N 53°38' W 000°10'0 0.0
2015-Jul-26 02:33N 53°38' W 000°10'0 0.0
2015-Jul-26 01:33N 53°38' W 000°10'0 0.0
2015-Jul-26 00:33N 53°38' W 000°10'0 0.0
2015-Jul-25 23:34N 53°38' W 000°10'2 2.5
2015-Jul-25 22:34N 53°37' W 000°06'6 5.5
2015-Jul-25 21:33N 53°35' E 000°03'0 0.0
2015-Jul-25 20:33N 53°35' E 000°03'0 0.0
2015-Jul-25 19:33N 53°35' E 000°03'0 0.1
2015-Jul-25 18:33N 53°35' E 000°03'0 0.0
2015-Jul-25 17:33N 53°35' E 000°03'0 0.0
2015-Jul-25 16:33N 53°35' E 000°03'0 0.0
2015-Jul-25 15:33N 53°35' E 000°03'0 0.0
2015-Jul-25 14:33N 53°35' E 000°03'0 0.0
2015-Jul-25 13:33N 53°35' E 000°03'0 0.0
2015-Jul-25 12:33N 53°35' E 000°03'0 0.0
2015-Jul-25 11:33N 53°35' E 000°03'0 0.0
2015-Jul-25 10:33N 53°35' E 000°03'0 0.1
2015-Jul-25 09:33N 53°35' E 000°03'0 0.1
2015-Jul-25 08:33N 53°35' E 000°03'0 0.1
2015-Jul-25 07:33N 53°35' E 000°03'0 0.0
2015-Jul-25 06:33N 53°35' E 000°03'0 0.0
2015-Jul-25 05:33N 53°35' E 000°03'0 0.0
2015-Jul-25 04:33N 53°35' E 000°03'0 0.0
2015-Jul-25 03:33N 53°35' E 000°03'0 0.0
2015-Jul-25 02:33N 53°35' E 000°03'0 0.0
2015-Jul-25 01:33N 53°35' E 000°03'0 0.0
2015-Jul-25 00:33N 53°35' E 000°03'0 0.0
2015-Jul-24 23:33N 53°35' E 000°03'0 0.0
2015-Jul-24 22:33N 53°35' E 000°03'0 0.1
2015-Jul-24 21:33N 53°35' E 000°03'0 0.0
2015-Jul-24 20:30N 53°35' E 000°03'0 0.0
2015-Jul-24 19:33N 53°35' E 000°03'0 0.1
2015-Jul-24 18:33N 53°35' E 000°03'0 0.0
2015-Jul-24 17:30N 53°35' E 000°03'0 0.1
2015-Jul-24 16:30N 53°35' E 000°03'7 7.4
2015-Jul-24 15:34N 53°33' E 000°14'1110.5
2015-Jul-24 14:33N 53°35' E 000°32'1210.4
2015-Jul-24 13:24N 53°45' E 000°44'  

Dump ship's entire track history